Kugluktuk Airport
CYCO : now visible

Airfield :











YOU CAN JOIN US ON...

 
LOGIN :

Register | Disclaimer

   EN    FR    IT 

 









Legend :    VFR   Marginal VFR   IFR   Intensive IFR   Very Intensive IFR
Visi :
Ceiling :
>= 8 km
>= 3000ft
5 to 8 km
1000 to 3000 ft
1500m to 5 km
500 to 1000 ft
800 to 1500m
200 to 500 ft
< 800m
< 200 ft
Symbols :   Thunderstorms  Fog  Heavy snow  Heavy precipitations  Wind > 20 kt







- Airport Elevation : 74 ft
- IATA code : YCO


CYCO - Kugluktuk

CURRENT METAR :
  • 220100Z 08012KT 15SM VCSH BKN048 OVC110 05/02 A2945 RMK SC5AS3 SLP977

EXPIRED METARs :
  • 220000Z 08012KT 15SM FEW024 OVC039 05/03 A2947 RMK SC2SC6 SLP983
  • 212300Z 09016KT 15SM SCT025 OVC043 05/03 A2949 RMK SC4SC4 SLP989

TAF TAF CYCO
Valid from the 22 at 01:00 until the 22 at 13:00 UTC


220038Z 2201/2213 08012KT P6SM FEW020 OVC040
FM220500 09015KT P6SM SCT015 OVC030
TEMPO 2205/2209 P6SM -RA BKN015
FM220900 09015G25KT P6SM SCT008 OVC015
TEMPO 2209/2213 5SM -RA BR BKN008 RMK NXT FCST BY 220700Z
No reported NOTAMs for that airfield.



MET'MAP, your aeronautical weather chart ! - Copyright ORBIFLY December 2007 - Disclaimer

ORBIFLY MET'MAP TEAM :

Programming & Development : Alexandra Zaïnal
Concept & Development : Baudouin d'Aumeries
Co-Development & Prog : Marc-Olivier Méhu
Technical & hardware support : Manuel Goepfert

Contact : metmap@orbifly.com




SOURCES & CREDITS :

   NOAA       Earth
Advisory